CheckWX is a tool to help pilots better visualize weather data.  It is not intended as a substitute for an official pre-flight weather briefing.

20:13:46 UTC

KFVX METAR
Farmville Regional Airport
Farmville, Virginia, USA
Current

19 mins ago

KFVX 231955Z AUTO 22011G16KT 10SM CLR 28/10 A2991 RMK AO2 T02780102
Observed
Apr-23 @ 19:55 UTC
Wind
  • 220° at 11 KTS
  • Gusting to 16 KTS
Visibility
10 SM
Flight Rules
VFR
Cloud Levels
  • Clear skies
Temperature
28°C / 82°F
Dewpoint
10°C / 50°F
Humidity
32%
Altimeter
29.91" Hg
Pressure
1012.92 hPa
Previous

39 mins ago

KFVX 231935Z AUTO 20012G16KT 10SM CLR 28/11 A2992 RMK AO2 T02810111
Observed
Apr-23 @ 19:35 UTC
Wind
  • 200° at 12 KTS
  • Gusting to 16 KTS
Visibility
10 SM
Flight Rules
VFR
Cloud Levels
  • Clear skies
Temperature
28°C / 82°F
Dewpoint
11°C / 52°F
Humidity
35%
Altimeter
29.92" Hg
Pressure
1013.22 hPa
Previous

59 mins ago

KFVX 231915Z AUTO 23010G14KT 10SM CLR 28/10 A2993 RMK AO2 LTG DSNT N T02760104
Observed
Apr-23 @ 19:15 UTC
Wind
  • 230° at 10 KTS
  • Gusting to 14 KTS
Visibility
10 SM
Flight Rules
VFR
Cloud Levels
  • Clear skies
Temperature
28°C / 82°F
Dewpoint
10°C / 50°F
Humidity
32%
Altimeter
29.93" Hg
Pressure
1013.52 hPa